Brasileira, Brazil
Current Conditions -  °F | °C
As of 7:00 AM on Sunday 23 Nov 2014 (Local Time) from SBPB Reporting Station
Few Clouds Few Clouds  
Wind Chill: 84°   Ceiling: Unl
Heat Index: 90°   Visibility: 6mi
Dew Point: 72°   Wind: 16mph
Humidity: 66%   Direction: 110°ESE
Pressure: 29.85"   Gusts: NA
Location:  4.13°S, 41.78°W
Report Text: SBPB 231000Z 11014KT 9999 FEW017 29/22 Q1011
Loading
Personal Weather Stations






























Interactive Weather Map New forecast layout! Learn more

10-Day Weather Forecast

Advertisements
Track Severe Weather on mobile